Flight Track Log - Related Links

Times and Time Zones

All times are in EDT time to prevent confusion due to time zone crossing. See the JBU2180 flight status page for this flight to view local times or setup timezone preferences in your user account.

Time Position Orientation Groundspeed Altitude Reporting Facility
EDT Latitude Longitude Course Direction KTS MPH feet Rate Location/Type
Sat 06:28:19 AM 40.6667 -74.1833 51° Northeast 150 173 900  Level New York TRACON
Sat 06:29:20 AM 40.6500 -74.2167 237° Southwest 201 231 3,000 2,450 Climbing New York TRACON
Sat 06:30:19 AM 40.7167 -74.2000 11° North 278 320 5,800 1,053 Climbing New York TRACON
Sat 06:31:00 AM 40.8667 -73.8951 90° East  Level FlightAware Approximate
Sat 06:32:00 AM 40.9268 -73.8058 47° Northeast  Level FlightAware Approximate
Sat 06:32:11 AM 40.8475 -74.0883 33° Northeast 307 353 6,000  Level Boston Center
Sat 06:33:00 AM 40.9886 -73.7136 51° Northeast  Level FlightAware Approximate
Sat 06:33:12 AM 40.8806 -73.9814 68° East 320 368 8,300  Level Boston Center
Sat 06:34:14 AM 40.9053 -73.8681 74° East 319 367 10,600 2,488 Climbing Boston Center
Sat 06:35:15 AM 40.9739 -73.7686 48° Northeast 354 407 13,400 2,951 Climbing Boston Center
Sat 06:36:16 AM 41.0292 -73.6442 59° Northeast 384 442 16,600 2,754 Climbing Boston Center
Sat 06:37:17 AM 41.0747 -73.5039 67° East 411 473 19,000 791 Climbing Boston Center
Sat 06:39:18 AM 41.1683 -73.2167 67° East 421 484 19,000  Level Boston Center
Sat 06:40:17 AM 41.2150 -73.0717 67° East 422 486 19,000  Level Boston Center
Sat 06:41:20 AM 41.2614 -72.9269 67° East 422 486 19,000  Level Boston Center
Sat 06:42:20 AM 41.3086 -72.7767 67° East 422 486 19,000  Level Boston Center
Sat 06:43:19 AM 41.3567 -72.6233 67° East 421 484 19,000  Level Boston Center
Sat 06:44:22 AM 41.4019 -72.4806 67° East 421 484 19,000  Level Boston Center
Sat 06:45:24 AM 41.4475 -72.3386 67° East 420 483 19,000  Level Boston Center
Sat 06:46:24 AM 41.4947 -72.1872 67° East 419 482 19,000  Level Boston Center
Sat 06:47:26 AM 41.5378 -72.0439 68° East 418 481 19,000 -600 Level Boston Center
Sat 06:48:24 AM 41.5817 -71.9019 68° East 417 480 17,800 -1,550 Descending Boston Center
Sat 06:49:26 AM 41.6239 -71.7625 68° East 409 471 15,900 -1,983 Descending Boston Center
Sat 06:50:25 AM 41.6650 -71.6269 68° East 401 461 13,800 -1,950 Descending Boston Center
Sat 06:51:26 AM 41.7050 -71.4933 68° East 366 421 12,000 -1,344 Descending Boston Center
Sat 06:52:30 AM 41.7558 -71.3917 56° Northeast 337 388 11,000 -488 Descending Boston Center
Sat 06:53:29 AM 41.8208 -71.3017 46° Northeast 336 387 11,000 -555 Level Boston Center
Sat 06:54:29 AM 41.9019 -71.2272 34° Northeast 336 387 9,900 -927 Descending Boston Center
Sat 06:55:32 AM 41.9822 -71.1892 19° North 309 356 9,100 -1,210 Descending Boston Center
Sat 06:56:33 AM 42.0519 -71.1561 19° North 274 315 7,400 -1,721 Descending Boston Center
Sat 06:57:34 AM 42.1186 -71.1239 20° North 259 298 5,600 -1,820 Descending Boston Center
Sat 06:58:35 AM 42.1811 -71.0939 20° North 245 282 3,700 -1,525 Descending Boston Center
Sat 06:59:36 AM 42.2414 -71.0644 20° North 213 245 2,500 -1,082 Descending Boston Center
Sat 07:00:37 AM 42.2897 -71.0422 19° North 186 214 1,500 -807 Descending Boston Center
Sat 07:01:35 AM 42.3186 -71.0281 20° North 138 159 900 -504 Descending Boston Center
Sat 07:02:36 AM 42.3514 -71.0117 20° North 127 146 500 -393 Descending Boston Center
Sat 07:04:00 AM 42.3500 -71.0000 North  Level FlightAware Approximate

Login

Don't have an account? Register now (free) for customized features, flight alerts, and more!